• Join FlightAware (Why Join?)
  • Login
  • US Flag 
01:40AM EST


 

Airport Tracker/Info


-or-


 

Live Flight TrackerFlight Track Log ✈ DAL268 ✈ 01-May-2013 ✈ KATL - KJFK

Flight Track Log - Related Links

Times and Time Zones

All times are in EDT time to prevent confusion due to time zone crossing. See the DAL268 flight status page for this flight to view local times or setup timezone preferences in your user account.

Time Position Orientation Groundspeed Altitude Reporting Facility
EDT Latitude Longitude Course Direction KTS MPH feet Rate Location/Type
06:13PM 33.6979 -83.9200 101° East  Level FlightAware Approximate
06:13PM 33.6340 -84.1530 101° East 10,200  Level FlightAware
06:14PM 33.6769 -83.7945 101° East  Level FlightAware Approximate
06:14PM 33.6370 -84.0700 87° East 339 390 11,800  Level FlightAware
06:14PM 33.6410 -83.9900 87° East 371 427 13,100 2,460 Climbing FlightAware
06:15PM 33.6490 -83.8530 86° East 382 440 16,400 2,760 Climbing FlightAware
06:16PM 33.6560 -83.7480 85° East 397 457 18,400 2,700 Climbing FlightAware
06:17PM 33.6600 -83.6710 86° East 398 458 20,000 1,920 Climbing FlightAware
06:17PM 33.6770 -83.5970 75° East 430 495 20,700 2,220 Climbing FlightAware
06:18PM 33.7120 -83.5150 63° Northeast 417 480 22,800 2,040 Climbing FlightAware
06:19PM 33.7430 -83.4380 64° Northeast 442 509 23,300 1,320 Climbing FlightAware
06:19PM 33.7880 -83.3240 65° Northeast 459 528 24,700 1,440 Climbing FlightAware
06:20PM 33.8170 -83.2320 69° East 473 544 25,500 1,200 Climbing FlightAware
06:21PM 33.8420 -83.1230 75° East 486 559 26,300 1,260 Climbing FlightAware
06:21PM 33.8650 -83.0230 74° East 491 565 27,200 1,320 Climbing FlightAware
06:22PM 33.8950 -82.8930 74° East 504 580 28,200 1,200 Climbing FlightAware
06:23PM 33.9400 -82.7740 65° Northeast 510 587 29,000 1,380 Climbing FlightAware
06:24PM 33.9890 -82.6760 59° Northeast 504 580 30,200 1,680 Climbing FlightAware
06:24PM 34.0420 -82.5710 59° Northeast 501 577 31,400 1,620 Climbing FlightAware
06:25PM 34.0910 -82.4740 59° Northeast 502 578 32,500 360 Climbing FlightAware
06:28PM 34.3350 -81.9890 59° Northeast 501 577 33,000 120 Climbing FlightAware
06:29PM 34.3900 -81.8780 59° Northeast 498 573 33,000  Level FlightAware
06:30PM 34.4350 -81.7910 58° Northeast 498 573 33,000  Level FlightAware
06:31PM 34.4790 -81.7000 60° Northeast 498 573 33,000  Level FlightAware
06:31PM 34.5290 -81.6000 59° Northeast 499 574 33,000  Level FlightAware
06:32PM 34.5930 -81.4700 59° Northeast 502 578 33,000  Level FlightAware
06:33PM 34.6410 -81.3740 59° Northeast 503 579 33,000  Level FlightAware
06:33PM 34.6920 -81.2700 59° Northeast 503 579 33,000  Level FlightAware
06:34PM 34.7390 -81.1740 59° Northeast 501 577 33,000  Level FlightAware
06:35PM 34.7780 -81.0960 59° Northeast 501 577 33,000  Level FlightAware
06:35PM 34.8340 -80.9810 59° Northeast 499 574 33,000  Level FlightAware
06:36PM 34.8850 -80.8750 60° Northeast 497 572 33,000  Level FlightAware
06:37PM 34.9400 -80.7620 59° Northeast 496 571 33,000  Level FlightAware
06:38PM 34.9870 -80.6650 59° Northeast 495 570 33,000  Level FlightAware
06:38PM 35.0330 -80.5710 59° Northeast 496 571 33,000  Level FlightAware
06:39PM 35.0840 -80.4640 60° Northeast 494 568 33,000  Level FlightAware
06:40PM 35.1290 -80.3700 60° Northeast 495 570 33,000  Level FlightAware
06:40PM 35.1710 -80.2820 60° Northeast 496 571 33,000  Level FlightAware
06:41PM 35.2170 -80.1890 59° Northeast 496 571 33,000  Level FlightAware
06:42PM 35.2570 -80.1070 59° Northeast 496 571 33,000  Level FlightAware
06:42PM 35.2970 -80.0260 59° Northeast 496 571 33,000  Level FlightAware
06:43PM 35.3370 -79.9440 59° Northeast 496 571 33,000  Level FlightAware
06:44PM 35.3770 -79.8620 59° Northeast 496 571 33,000  Level FlightAware
06:45PM 35.4270 -79.7590 59° Northeast 496 571 33,000  Level FlightAware
06:45PM 35.4680 -79.6770 58° Northeast 496 571 33,000  Level FlightAware
06:46PM 35.5080 -79.5950 59° Northeast 496 571 33,000  Level FlightAware
06:47PM 35.6050 -79.3640 63° Northeast 494 568 33,000  Level FlightAware
06:47PM 35.6490 -79.2690 60° Northeast 492 566 33,000  Level FlightAware
06:48PM 35.6960 -79.1680 60° Northeast 492 566 33,000  Level FlightAware
06:49PM 35.7350 -79.0850 60° Northeast 492 566 33,000  Level FlightAware
06:49PM 35.7940 -78.9550 61° Northeast 490 564 33,000  Level FlightAware
06:50PM 35.8390 -78.8560 61° Northeast 488 562 33,000  Level FlightAware
06:51PM 35.8750 -78.7470 68° East 496 571 33,000  Level FlightAware
06:52PM 35.8900 -78.6170 82° East 500 575 33,000  Level FlightAware
06:52PM 35.9010 -78.5050 83° East 499 574 33,000  Level FlightAware
06:53PM 35.9130 -78.3780 83° East 497 572 33,000  Level FlightAware
06:54PM 35.9230 -78.2670 84° East 497 572 33,000  Level FlightAware
06:54PM 35.9340 -78.1550 83° East 496 571 33,000  Level FlightAware
06:55PM 35.9470 -78.0240 83° East 495 570 33,000  Level FlightAware
06:56PM 35.9610 -77.8760 83° East 494 568 33,000  Level FlightAware
06:57PM 35.9720 -77.7620 83° East 491 565 33,000  Level FlightAware
06:57PM 36.0100 -77.6510 67° East 472 543 33,000  Level FlightAware
06:58PM 36.0640 -77.5620 53° Northeast 470 541 33,000  Level FlightAware
06:59PM 36.1060 -77.4950 52° Northeast 469 540 33,000  Level FlightAware
06:59PM 36.1630 -77.4050 52° Northeast 469 540 33,000  Level FlightAware
07:00PM 36.2080 -77.3330 52° Northeast 469 540 33,000  Level FlightAware
07:01PM 36.2870 -77.2010 53° Northeast 465 535 33,000  Level FlightAware
07:02PM 36.3380 -77.1170 53° Northeast 464 534 33,000  Level FlightAware
07:02PM 36.3800 -77.0510 52° Northeast 464 534 33,000  Level FlightAware
07:03PM 36.4360 -76.9620 52° Northeast 464 534 33,000  Level FlightAware
07:04PM 36.4810 -76.8900 52° Northeast 464 534 33,000  Level FlightAware
07:04PM 36.5260 -76.8180 52° Northeast 464 534 33,000  Level FlightAware
07:05PM 36.5710 -76.7470 52° Northeast 464 534 33,000  Level FlightAware
07:06PM 36.6160 -76.6750 52° Northeast 464 534 33,000  Level FlightAware
07:06PM 36.6720 -76.5860 52° Northeast 464 534 33,000  Level FlightAware
07:07PM 36.7170 -76.5140 52° Northeast 464 534 33,000  Level FlightAware
07:08PM 36.7620 -76.4420 52° Northeast 464 534 33,000  Level FlightAware
07:08PM 36.8070 -76.3700 52° Northeast 464 534 33,000  Level FlightAware
07:09PM 36.8520 -76.2980 52° Northeast 464 534 33,000  Level FlightAware
07:09PM 37.0370 -76.3130 356° North 437 503 33,000  Level FlightAware
07:10PM 37.1010 -76.2680 29° Northeast 436 502 33,000  Level FlightAware
07:11PM 37.2110 -76.1900 29° Northeast 435 501 33,000  Level FlightAware
07:12PM 37.2794 -76.1405 30° Northeast 436 502 33,000  Level FlightAware ADS-B
07:12PM 37.3335 -76.1017 30° Northeast 436 502 33,000  Level FlightAware ADS-B
07:13PM 37.3978 -76.0554 30° Northeast 437 503 33,000  Level FlightAware ADS-B
07:13PM 37.4530 -76.0156 30° Northeast 437 503 33,000  Level FlightAware ADS-B
07:14PM 37.5110 -75.9737 30° Northeast 438 504 33,000  Level FlightAware ADS-B
07:14PM 37.5697 -75.9314 30° Northeast 439 505 33,000  Level FlightAware ADS-B
07:15PM 37.6288 -75.8886 30° Northeast 439 505 33,000  Level FlightAware ADS-B
07:16PM 37.7000 -75.8370 30° Northeast 439 505 33,000  Level FlightAware
07:16PM 37.7780 -75.7800 30° Northeast 440 506 33,000  Level FlightAware
07:17PM 37.8581 -75.6904 41° Northeast 444 511 33,000  Level FlightAware ADS-B
07:18PM 37.9006 -75.6328 47° Northeast 443 510 33,000  Level FlightAware ADS-B
07:18PM 37.9437 -75.5747 47° Northeast 441 507 33,000  Level FlightAware ADS-B
07:18PM 37.9601 -75.5536 45° Northeast 439 505 33,000  Level FlightAware ADS-B
07:19PM 37.9902 -75.5217 40° Northeast 436 502 33,000  Level FlightAware ADS-B
07:19PM 38.0440 -75.4800 31° Northeast 432 497 33,000  Level FlightAware
07:20PM 38.1280 -75.4270 26° Northeast 430 495 33,000  Level FlightAware
07:20PM 38.1385 -75.4201 27° Northeast 431 496 33,000  Level FlightAware ADS-B
07:21PM 38.1922 -75.3860 27° Northeast 430 495 33,000  Level FlightAware ADS-B
07:21PM 38.2555 -75.3456 27° Northeast 429 494 33,000  Level FlightAware ADS-B
07:22PM 38.3091 -75.3113 27° Northeast 427 491 33,000  Level FlightAware ADS-B
07:23PM 38.4228 -75.2382 27° Northeast 427 491 33,000  Level FlightAware ADS-B
07:23PM 38.4783 -75.2024 27° Northeast 425 489 33,000  Level FlightAware ADS-B
07:24PM 38.5319 -75.1677 27° Northeast 425 489 33,000  Level FlightAware ADS-B
07:24PM 38.5872 -75.1319 27° Northeast 424 488 33,000  Level FlightAware ADS-B
07:25PM 38.6413 -75.0969 27° Northeast 424 488 33,000  Level FlightAware ADS-B
07:25PM 38.7015 -75.0578 27° Northeast 424 488 33,000  Level FlightAware ADS-B
07:26PM 38.7359 -75.0351 27° Northeast 423 487 33,000  Level FlightAware ADS-B
07:26PM 38.7760 -75.0059 30° Northeast 424 488 33,000  Level FlightAware ADS-B
07:27PM 38.8501 -74.9430 33° Northeast 424 488 33,000 -420 Level FlightAware ADS-B
07:27PM 38.8994 -74.8981 35° Northeast 424 488 32,500 -1,080 Descending FlightAware ADS-B
07:28PM 38.9502 -74.8512 36° Northeast 429 494 31,900 -1,140 Descending FlightAware ADS-B
07:29PM 39.0287 -74.7790 36° Northeast 430 495 31,000 -1,380 Descending FlightAware ADS-B
07:29PM 39.0780 -74.7339 35° Northeast 433 498 30,100 -1,980 Descending FlightAware ADS-B
07:30PM 39.1290 -74.6876 35° Northeast 425 489 29,000 -2,160 Descending FlightAware ADS-B
07:30PM 39.1766 -74.6442 35° Northeast 416 479 27,900 -2,280 Descending FlightAware ADS-B
07:31PM 39.2253 -74.5997 35° Northeast 407 468 26,700 -2,340 Descending FlightAware ADS-B
07:31PM 39.2724 -74.5565 35° Northeast 399 459 25,500 -2,280 Descending FlightAware ADS-B
07:32PM 39.3173 -74.5154 35° Northeast 390 449 24,400 -2,100 Descending FlightAware ADS-B
07:32PM 39.3617 -74.4746 35° Northeast 382 440 23,400 -2,100 Descending FlightAware ADS-B
07:33PM 39.4050 -74.4348 35° Northeast 375 432 22,300 -2,100 Descending FlightAware ADS-B
07:33PM 39.4566 -74.3873 35° Northeast 384 442 21,100 -2,040 Descending FlightAware ADS-B
07:34PM 39.5016 -74.3456 36° Northeast 385 443 20,000 -2,220 Descending FlightAware ADS-B
07:34PM 39.5453 -74.3051 36° Northeast 376 433 18,900 -2,040 Descending FlightAware ADS-B
07:35PM 39.5809 -74.2712 36° Northeast 370 426 18,100 -1,260 Descending FlightAware ADS-B
07:35PM 39.6233 -74.2261 39° Northeast 371 427 17,700 -1,620 Descending FlightAware ADS-B
07:36PM 39.6641 -74.1813 40° Northeast 370 426 16,400 -2,280 Descending FlightAware ADS-B
07:36PM 39.7039 -74.1373 40° Northeast 360 414 15,400 -1,560 Descending FlightAware ADS-B
07:37PM 39.7486 -74.0878 40° Northeast 359 413 14,700 -1,260 Descending FlightAware ADS-B
07:38PM 39.7879 -74.0444 40° Northeast 355 409 14,000 -1,320 Descending FlightAware ADS-B
07:38PM 39.8532 -73.9779 38° Northeast 351 404 12,900 -1,260 Descending FlightAware ADS-B
07:39PM 39.8693 -73.9656 30° Northeast 344 396 12,700 -1,260 Descending FlightAware ADS-B
07:39PM 39.9188 -73.9304 29° Northeast 323 372 11,900 -1,200 Descending FlightAware ADS-B
07:40PM 39.9573 -73.9033 28° Northeast 309 356 11,400 -1,080 Descending FlightAware ADS-B
07:40PM 39.9761 -73.8870 34° Northeast 301 346 11,100 -1,080 Descending FlightAware ADS-B
07:41PM 40.0090 -73.8548 37° Northeast 289 333 10,600 -540 Descending FlightAware ADS-B
07:41PM 40.0482 -73.8163 37° Northeast 286 329 10,500 -120 Descending FlightAware ADS-B
07:42PM 40.0816 -73.7838 37° Northeast 286 329 10,500 -420 Level FlightAware ADS-B
07:42PM 40.1160 -73.7503 37° Northeast 284 327 10,100 -840 Descending FlightAware ADS-B
07:42PM 40.1223 -73.7442 37° Northeast 284 327 10,000 -1,500 Descending FlightAware ADS-B
07:42PM 40.1338 -73.7352 31° Northeast 284 327 9,700 -1,500 Descending FlightAware ADS-B
07:43PM 40.1402 -73.7324 18° North 284 327 9,600 -1,200 Descending FlightAware ADS-B
07:43PM 40.1592 -73.7314 North 284 327 9,300 -1,500 Descending FlightAware ADS-B
07:43PM 40.1664 -73.7340 345° North 285 328 9,100 -1,620 Descending FlightAware ADS-B
07:43PM 40.1775 -73.7414 333° Northwest 286 329 8,900 -1,500 Descending FlightAware ADS-B
07:43PM 40.1980 -73.7596 326° Northwest 287 330 8,400 -1,500 Descending FlightAware ADS-B
07:44PM 40.2162 -73.7765 325° Northwest 286 329 8,000 -1,800 Descending FlightAware ADS-B
07:44PM 40.2341 -73.7929 325° Northwest 282 325 7,400 -2,400 Descending FlightAware ADS-B
07:44PM 40.2519 -73.8090 325° Northwest 280 322 6,700 -2,520 Descending FlightAware ADS-B
07:45PM 40.2707 -73.8264 325° Northwest 280 322 6,000 -2,280 Descending FlightAware ADS-B
07:45PM 40.2775 -73.8328 324° Northwest 280 322 5,800 -1,620 Descending FlightAware ADS-B
07:45PM 40.2971 -73.8516 324° Northwest 267 307 5,300 -1,200 Descending FlightAware ADS-B
07:45PM 40.3113 -73.8658 323° Northwest 254 292 5,100 -600 Descending FlightAware ADS-B
07:45PM 40.3175 -73.8746 313° West 249 287 5,100 -840 Level FlightAware ADS-B
07:46PM 40.3276 -73.8927 306° West 238 274 4,800 -1,320 Descending FlightAware ADS-B
07:46PM 40.3406 -73.9182 304° West 236 272 4,300 -1,140 Descending FlightAware ADS-B
07:46PM 40.3496 -73.9368 302° West 234 269 4,100 -1,020 Descending FlightAware ADS-B
07:46PM 40.3582 -73.9550 302° West 232 267 3,800 -840 Descending FlightAware ADS-B
07:47PM 40.3669 -73.9735 302° West 226 260 3,700 -420 Descending FlightAware ADS-B
07:47PM 40.3766 -73.9938 302° West 218 251 3,600 -420 Descending FlightAware ADS-B
07:47PM 40.3843 -74.0096 303° West 206 237 3,500 -600 Descending FlightAware ADS-B
07:47PM 40.3885 -74.0165 309° West 201 231 3,400 -900 Descending FlightAware ADS-B
07:47PM 40.3932 -74.0214 322° Northwest 195 224 3,300 -600 Descending FlightAware ADS-B
07:48PM 40.3964 -74.0239 329° Northwest 191 220 3,300 -840 Level FlightAware ADS-B
07:48PM 40.4103 -74.0333 333° Northwest 189 217 3,000 -1,020 Descending FlightAware ADS-B
07:48PM 40.4155 -74.0359 339° North 187 215 2,900 -1,020 Descending FlightAware ADS-B
07:48PM 40.4254 -74.0375 353° North 181 208 2,700 -420 Descending FlightAware ADS-B
07:49PM 40.4622 -74.0140 26° Northeast 171 197 2,500 -180 Descending FlightAware ADS-B
07:50PM 40.4820 -73.9980 32° Northeast 166 191 2,500  Level FlightAware
07:50PM 40.5000 -73.9850 29° Northeast 167 192 2,500  Level FlightAware
07:50PM 40.5090 -73.9780 31° Northeast 168 193 2,500  Level FlightAware
07:51PM 40.5290 -73.9630 30° Northeast 168 193 2,500 -480 Level FlightAware
07:51PM 40.5470 -73.9480 32° Northeast 168 193 2,100 -780 Descending FlightAware
07:51PM 40.5550 -73.9410 34° Northeast 168 193 2,000 -540 Descending FlightAware
07:52PM 40.5750 -73.9250 31° Northeast 166 191 1,700 -780 Descending FlightAware
07:52PM 40.5930 -73.9100 32° Northeast 169 194 1,300 -780 Descending FlightAware
07:53PM 40.6130 -73.8930 33° Northeast 171 197 1,000 -720 Descending FlightAware
07:53PM 40.6330 -73.8780 30° Northeast 158 182 600 -660 Descending FlightAware
07:54PM 40.6470 -73.8680 28° Northeast 137 158 400 -600 Descending FlightAware
07:54PM 40.6550 -73.8590 40° Northeast 126 145 200 -300 Descending FlightAware
07:54PM 40.6650 -73.8410 54° Northeast 126 145 200  Level FlightAware
07:55PM 40.6660 -73.8340 79° East 123 142 200 -240 Level FlightAware
07:55PM 40.6660 -73.8230 90° East 127 146 100 -420 Descending FlightAware
07:55PM 40.6630 -73.8010 100° East 124 143 -240 Descending FlightAware
07:56PM 40.6570 -73.7880 121° Southeast 126 145  Level FlightAware